sensor_id;sensor_type;location;lat;lon;timestamp;P1;durP1;ratioP1;P2;durP2;ratioP2
8230;SDS011;4156;50.908;6.974;2023-03-31T00:00:46;3.00;;;1.50;;
8230;SDS011;4156;50.908;6.974;2023-03-31T00:03:16;3.10;;;1.63;;
8230;SDS011;4156;50.908;6.974;2023-03-31T00:05:45;2.67;;;1.50;;
8230;SDS011;4156;50.908;6.974;2023-03-31T00:08:12;5.90;;;1.77;;
8230;SDS011;4156;50.908;6.974;2023-03-31T00:10:37;5.63;;;2.13;;
8230;SDS011;4156;50.908;6.974;2023-03-31T00:13:09;2.73;;;1.60;;
8230;SDS011;4156;50.908;6.974;2023-03-31T00:15:35;7.10;;;2.57;;
8230;SDS011;4156;50.908;6.974;2023-03-31T00:18:01;5.73;;;1.77;;
8230;SDS011;4156;50.908;6.974;2023-03-31T00:20:26;4.70;;;1.97;;
8230;SDS011;4156;50.908;6.974;2023-03-31T00:22:52;4.20;;;1.50;;
8230;SDS011;4156;50.908;6.974;2023-03-31T00:25:18;2.60;;;1.50;;
8230;SDS011;4156;50.908;6.974;2023-03-31T00:27:45;4.30;;;1.67;;
8230;SDS011;4156;50.908;6.974;2023-03-31T00:30:13;4.93;;;1.90;;
8230;SDS011;4156;50.908;6.974;2023-03-31T00:32:39;2.30;;;1.30;;
8230;SDS011;4156;50.908;6.974;2023-03-31T00:35:05;2.93;;;1.20;;
8230;SDS011;4156;50.908;6.974;2023-03-31T00:37:31;2.90;;;1.60;;
8230;SDS011;4156;50.908;6.974;2023-03-31T00:39:57;2.70;;;1.47;;
8230;SDS011;4156;50.908;6.974;2023-03-31T00:42:23;3.40;;;1.53;;
8230;SDS011;4156;50.908;6.974;2023-03-31T00:50:14;3.80;;;1.63;;
8230;SDS011;4156;50.908;6.974;2023-03-31T00:52:42;5.23;;;1.90;;
8230;SDS011;4156;50.908;6.974;2023-03-31T00:55:12;3.47;;;1.50;;
8230;SDS011;4156;50.908;6.974;2023-03-31T00:57:41;2.57;;;1.60;;
8230;SDS011;4156;50.908;6.974;2023-03-31T01:00:10;4.67;;;1.60;;
8230;SDS011;4156;50.908;6.974;2023-03-31T01:02:44;4.77;;;1.70;;
8230;SDS011;4156;50.908;6.974;2023-03-31T01:05:20;4.30;;;1.60;;
8230;SDS011;4156;50.908;6.974;2023-03-31T01:07:48;4.27;;;1.93;;
8230;SDS011;4156;50.908;6.974;2023-03-31T01:10:16;4.77;;;2.27;;
8230;SDS011;4156;50.908;6.974;2023-03-31T01:12:46;4.90;;;1.50;;
8230;SDS011;4156;50.908;6.974;2023-03-31T01:15:15;3.97;;;1.60;;
8230;SDS011;4156;50.908;6.974;2023-03-31T01:17:40;3.20;;;1.40;;
8230;SDS011;4156;50.908;6.974;2023-03-31T01:20:31;3.37;;;1.60;;
8230;SDS011;4156;50.908;6.974;2023-03-31T01:26:35;3.47;;;1.63;;
8230;SDS011;4156;50.908;6.974;2023-03-31T01:29:39;4.90;;;1.70;;
8230;SDS011;4156;50.908;6.974;2023-03-31T01:43:21;5.47;;;1.60;;
8230;SDS011;4156;50.908;6.974;2023-03-31T01:54:03;3.47;;;2.00;;
8230;SDS011;4156;50.908;6.974;2023-03-31T01:56:50;3.30;;;1.87;;
8230;SDS011;4156;50.908;6.974;2023-03-31T02:01:56;5.07;;;2.10;;
8230;SDS011;4156;50.908;6.974;2023-03-31T02:04:27;7.57;;;1.77;;
8230;SDS011;4156;50.908;6.974;2023-03-31T02:07:26;4.13;;;1.83;;
8230;SDS011;4156;50.908;6.974;2023-03-31T02:09:56;7.67;;;2.07;;
8230;SDS011;4156;50.908;6.974;2023-03-31T02:12:25;5.20;;;1.80;;
8230;SDS011;4156;50.908;6.974;2023-03-31T02:14:54;5.77;;;2.20;;
8230;SDS011;4156;50.908;6.974;2023-03-31T02:17:22;8.80;;;2.80;;
8230;SDS011;4156;50.908;6.974;2023-03-31T02:19:57;6.23;;;2.07;;
8230;SDS011;4156;50.908;6.974;2023-03-31T02:22:30;4.90;;;1.83;;
8230;SDS011;4156;50.908;6.974;2023-03-31T02:24:58;7.67;;;2.30;;
8230;SDS011;4156;50.908;6.974;2023-03-31T02:27:32;5.40;;;2.03;;
8230;SDS011;4156;50.908;6.974;2023-03-31T02:30:03;6.53;;;1.90;;
8230;SDS011;4156;50.908;6.974;2023-03-31T02:32:31;6.50;;;1.80;;
8230;SDS011;4156;50.908;6.974;2023-03-31T02:35:01;5.73;;;2.17;;
8230;SDS011;4156;50.908;6.974;2023-03-31T02:37:27;6.50;;;2.07;;
8230;SDS011;4156;50.908;6.974;2023-03-31T02:39:54;4.27;;;1.97;;
8230;SDS011;4156;50.908;6.974;2023-03-31T02:42:22;4.40;;;1.70;;
8230;SDS011;4156;50.908;6.974;2023-03-31T02:44:49;7.57;;;2.00;;
8230;SDS011;4156;50.908;6.974;2023-03-31T02:47:15;9.23;;;3.30;;
8230;SDS011;4156;50.908;6.974;2023-03-31T02:49:44;5.90;;;2.10;;
8230;SDS011;4156;50.908;6.974;2023-03-31T02:55:07;7.00;;;2.70;;
8230;SDS011;4156;50.908;6.974;2023-03-31T03:03:43;2.47;;;1.60;;
8230;SDS011;4156;50.908;6.974;2023-03-31T03:11:45;6.80;;;2.10;;
8230;SDS011;4156;50.908;6.974;2023-03-31T03:14:42;7.97;;;2.90;;
8230;SDS011;4156;50.908;6.974;2023-03-31T03:17:29;3.87;;;2.00;;
8230;SDS011;4156;50.908;6.974;2023-03-31T03:20:00;4.43;;;1.70;;
8230;SDS011;4156;50.908;6.974;2023-03-31T03:22:30;2.83;;;1.70;;
8230;SDS011;4156;50.908;6.974;2023-03-31T03:24:55;6.03;;;2.27;;
8230;SDS011;4156;50.908;6.974;2023-03-31T03:27:21;3.77;;;1.90;;
8230;SDS011;4156;50.908;6.974;2023-03-31T03:29:46;3.97;;;1.60;;
8230;SDS011;4156;50.908;6.974;2023-03-31T03:32:12;3.87;;;1.93;;
8230;SDS011;4156;50.908;6.974;2023-03-31T03:34:38;6.00;;;1.83;;
8230;SDS011;4156;50.908;6.974;2023-03-31T03:37:03;2.40;;;1.67;;
8230;SDS011;4156;50.908;6.974;2023-03-31T03:39:29;3.40;;;1.83;;
8230;SDS011;4156;50.908;6.974;2023-03-31T03:41:55;4.10;;;1.63;;
8230;SDS011;4156;50.908;6.974;2023-03-31T03:44:21;4.17;;;1.60;;
8230;SDS011;4156;50.908;6.974;2023-03-31T03:46:46;4.57;;;1.73;;
8230;SDS011;4156;50.908;6.974;2023-03-31T03:49:12;5.03;;;1.80;;
8230;SDS011;4156;50.908;6.974;2023-03-31T03:51:37;4.17;;;2.17;;
8230;SDS011;4156;50.908;6.974;2023-03-31T03:54:03;4.23;;;1.60;;
8230;SDS011;4156;50.908;6.974;2023-03-31T03:56:28;6.63;;;1.70;;
8230;SDS011;4156;50.908;6.974;2023-03-31T03:58:54;8.17;;;2.00;;
8230;SDS011;4156;50.908;6.974;2023-03-31T04:01:20;3.63;;;1.80;;
8230;SDS011;4156;50.908;6.974;2023-03-31T04:03:45;4.57;;;2.00;;
8230;SDS011;4156;50.908;6.974;2023-03-31T04:06:11;4.97;;;1.90;;
8230;SDS011;4156;50.908;6.974;2023-03-31T04:08:36;2.80;;;1.57;;
8230;SDS011;4156;50.908;6.974;2023-03-31T04:11:02;5.77;;;1.63;;
8230;SDS011;4156;50.908;6.974;2023-03-31T04:13:33;4.60;;;1.60;;
8230;SDS011;4156;50.908;6.974;2023-03-31T04:15:59;6.77;;;2.07;;
8230;SDS011;4156;50.908;6.974;2023-03-31T04:18:24;5.13;;;2.27;;
8230;SDS011;4156;50.908;6.974;2023-03-31T04:20:50;3.40;;;1.70;;
8230;SDS011;4156;50.908;6.974;2023-03-31T04:23:33;5.73;;;1.83;;
8230;SDS011;4156;50.908;6.974;2023-03-31T04:26:02;3.97;;;1.70;;
8230;SDS011;4156;50.908;6.974;2023-03-31T04:28:32;4.60;;;1.90;;
8230;SDS011;4156;50.908;6.974;2023-03-31T04:30:58;3.40;;;1.80;;
8230;SDS011;4156;50.908;6.974;2023-03-31T04:33:25;6.73;;;1.70;;
8230;SDS011;4156;50.908;6.974;2023-03-31T04:35:50;3.57;;;1.73;;
8230;SDS011;4156;50.908;6.974;2023-03-31T04:38:18;4.80;;;1.93;;
8230;SDS011;4156;50.908;6.974;2023-03-31T04:40:49;3.10;;;1.63;;
8230;SDS011;4156;50.908;6.974;2023-03-31T04:43:16;3.57;;;1.50;;
8230;SDS011;4156;50.908;6.974;2023-03-31T04:45:42;4.60;;;2.23;;
8230;SDS011;4156;50.908;6.974;2023-03-31T04:48:08;6.90;;;1.73;;
8230;SDS011;4156;50.908;6.974;2023-03-31T04:50:34;3.80;;;1.60;;
8230;SDS011;4156;50.908;6.974;2023-03-31T04:53:01;4.63;;;1.73;;
8230;SDS011;4156;50.908;6.974;2023-03-31T04:55:27;2.80;;;1.57;;
8230;SDS011;4156;50.908;6.974;2023-03-31T04:57:53;2.33;;;1.40;;
8230;SDS011;4156;50.908;6.974;2023-03-31T05:00:18;3.00;;;1.60;;
8230;SDS011;4156;50.908;6.974;2023-03-31T05:02:44;3.13;;;1.50;;
8230;SDS011;4156;50.908;6.974;2023-03-31T05:05:10;6.60;;;2.50;;
8230;SDS011;4156;50.908;6.974;2023-03-31T05:07:36;4.17;;;1.63;;
8230;SDS011;4156;50.908;6.974;2023-03-31T05:10:02;5.53;;;1.63;;
8230;SDS011;4156;50.908;6.974;2023-03-31T05:12:28;1.63;;;1.20;;
8230;SDS011;4156;50.908;6.974;2023-03-31T05:14:54;4.83;;;1.53;;
8230;SDS011;4156;50.908;6.974;2023-03-31T05:17:19;3.93;;;1.80;;
8230;SDS011;4156;50.908;6.974;2023-03-31T05:19:46;3.90;;;1.73;;
8230;SDS011;4156;50.908;6.974;2023-03-31T05:22:11;2.60;;;1.30;;
8230;SDS011;4156;50.908;6.974;2023-03-31T05:24:37;3.47;;;1.93;;
8230;SDS011;4156;50.908;6.974;2023-03-31T05:27:02;2.80;;;1.30;;
8230;SDS011;4156;50.908;6.974;2023-03-31T05:29:28;2.30;;;1.50;;
8230;SDS011;4156;50.908;6.974;2023-03-31T05:31:53;2.33;;;1.40;;
8230;SDS011;4156;50.908;6.974;2023-03-31T05:34:19;2.60;;;1.47;;
8230;SDS011;4156;50.908;6.974;2023-03-31T05:36:45;1.80;;;1.20;;
8230;SDS011;4156;50.908;6.974;2023-03-31T05:39:12;1.97;;;1.37;;
8230;SDS011;4156;50.908;6.974;2023-03-31T05:41:38;2.43;;;1.40;;
8230;SDS011;4156;50.908;6.974;2023-03-31T05:44:03;2.27;;;1.30;;
8230;SDS011;4156;50.908;6.974;2023-03-31T05:46:30;3.43;;;1.57;;
8230;SDS011;4156;50.908;6.974;2023-03-31T05:48:56;2.97;;;1.57;;
8230;SDS011;4156;50.908;6.974;2023-03-31T05:51:22;4.17;;;1.53;;
8230;SDS011;4156;50.908;6.974;2023-03-31T05:53:48;1.60;;;1.40;;
8230;SDS011;4156;50.908;6.974;2023-03-31T05:56:14;2.63;;;1.40;;
8230;SDS011;4156;50.908;6.974;2023-03-31T05:58:40;2.27;;;1.30;;
8230;SDS011;4156;50.908;6.974;2023-03-31T06:01:09;1.37;;;1.10;;
8230;SDS011;4156;50.908;6.974;2023-03-31T06:03:43;2.87;;;1.40;;
8230;SDS011;4156;50.908;6.974;2023-03-31T06:06:10;1.90;;;1.10;;
8230;SDS011;4156;50.908;6.974;2023-03-31T06:08:37;1.77;;;1.27;;
8230;SDS011;4156;50.908;6.974;2023-03-31T06:11:03;2.70;;;1.30;;
8230;SDS011;4156;50.908;6.974;2023-03-31T06:13:33;1.77;;;1.10;;
8230;SDS011;4156;50.908;6.974;2023-03-31T06:15:59;2.10;;;1.57;;
8230;SDS011;4156;50.908;6.974;2023-03-31T06:18:26;1.00;;;0.90;;
8230;SDS011;4156;50.908;6.974;2023-03-31T06:20:53;2.63;;;1.40;;
8230;SDS011;4156;50.908;6.974;2023-03-31T06:23:19;1.10;;;1.00;;
8230;SDS011;4156;50.908;6.974;2023-03-31T06:25:46;1.00;;;1.00;;
8230;SDS011;4156;50.908;6.974;2023-03-31T06:28:11;1.00;;;0.90;;
8230;SDS011;4156;50.908;6.974;2023-03-31T06:30:37;3.80;;;1.10;;
8230;SDS011;4156;50.908;6.974;2023-03-31T06:33:03;0.80;;;0.80;;
8230;SDS011;4156;50.908;6.974;2023-03-31T06:35:28;1.17;;;1.10;;
8230;SDS011;4156;50.908;6.974;2023-03-31T06:37:54;1.30;;;1.20;;
8230;SDS011;4156;50.908;6.974;2023-03-31T06:40:19;0.93;;;0.90;;
8230;SDS011;4156;50.908;6.974;2023-03-31T06:42:45;0.73;;;0.70;;
8230;SDS011;4156;50.908;6.974;2023-03-31T06:45:10;1.30;;;1.20;;
8230;SDS011;4156;50.908;6.974;2023-03-31T06:47:36;0.87;;;0.80;;
8230;SDS011;4156;50.908;6.974;2023-03-31T06:50:03;1.37;;;0.90;;
8230;SDS011;4156;50.908;6.974;2023-03-31T06:52:29;2.30;;;1.20;;
8230;SDS011;4156;50.908;6.974;2023-03-31T06:54:55;1.13;;;1.00;;
8230;SDS011;4156;50.908;6.974;2023-03-31T06:57:21;1.23;;;0.97;;
8230;SDS011;4156;50.908;6.974;2023-03-31T06:59:46;1.73;;;1.17;;
8230;SDS011;4156;50.908;6.974;2023-03-31T07:02:12;1.20;;;1.00;;
8230;SDS011;4156;50.908;6.974;2023-03-31T07:04:37;1.33;;;1.10;;
8230;SDS011;4156;50.908;6.974;2023-03-31T07:07:03;1.17;;;0.93;;
8230;SDS011;4156;50.908;6.974;2023-03-31T07:09:28;0.93;;;0.90;;
8230;SDS011;4156;50.908;6.974;2023-03-31T07:11:54;1.10;;;1.00;;
8230;SDS011;4156;50.908;6.974;2023-03-31T07:14:19;1.03;;;0.80;;
8230;SDS011;4156;50.908;6.974;2023-03-31T07:16:46;0.93;;;0.93;;
8230;SDS011;4156;50.908;6.974;2023-03-31T07:19:12;1.13;;;0.90;;
8230;SDS011;4156;50.908;6.974;2023-03-31T07:21:39;1.60;;;0.93;;
8230;SDS011;4156;50.908;6.974;2023-03-31T07:24:05;1.10;;;0.90;;
8230;SDS011;4156;50.908;6.974;2023-03-31T07:26:30;1.70;;;1.20;;
8230;SDS011;4156;50.908;6.974;2023-03-31T07:28:56;2.70;;;0.90;;
8230;SDS011;4156;50.908;6.974;2023-03-31T07:31:22;1.37;;;1.00;;
8230;SDS011;4156;50.908;6.974;2023-03-31T07:33:48;2.17;;;1.13;;
8230;SDS011;4156;50.908;6.974;2023-03-31T07:36:14;0.83;;;0.83;;
8230;SDS011;4156;50.908;6.974;2023-03-31T07:38:40;1.47;;;0.83;;
8230;SDS011;4156;50.908;6.974;2023-03-31T07:41:11;2.03;;;1.07;;
8230;SDS011;4156;50.908;6.974;2023-03-31T07:43:39;1.10;;;1.00;;
8230;SDS011;4156;50.908;6.974;2023-03-31T07:46:05;1.90;;;1.00;;
8230;SDS011;4156;50.908;6.974;2023-03-31T07:48:32;1.97;;;1.30;;
8230;SDS011;4156;50.908;6.974;2023-03-31T07:50:58;1.07;;;0.87;;
8230;SDS011;4156;50.908;6.974;2023-03-31T07:53:23;1.57;;;1.47;;
8230;SDS011;4156;50.908;6.974;2023-03-31T07:55:49;3.03;;;1.13;;
8230;SDS011;4156;50.908;6.974;2023-03-31T07:58:14;5.87;;;1.47;;
8230;SDS011;4156;50.908;6.974;2023-03-31T08:00:40;1.20;;;1.10;;
8230;SDS011;4156;50.908;6.974;2023-03-31T08:03:05;1.10;;;1.00;;
8230;SDS011;4156;50.908;6.974;2023-03-31T08:05:31;0.90;;;0.90;;
8230;SDS011;4156;50.908;6.974;2023-03-31T08:07:57;2.67;;;1.20;;
8230;SDS011;4156;50.908;6.974;2023-03-31T08:10:23;1.80;;;1.17;;
8230;SDS011;4156;50.908;6.974;2023-03-31T08:12:50;1.90;;;1.10;;
8230;SDS011;4156;50.908;6.974;2023-03-31T08:15:16;1.40;;;1.10;;
8230;SDS011;4156;50.908;6.974;2023-03-31T08:17:42;1.47;;;1.00;;
8230;SDS011;4156;50.908;6.974;2023-03-31T08:20:08;1.83;;;1.07;;
8230;SDS011;4156;50.908;6.974;2023-03-31T08:22:37;1.73;;;1.20;;
8230;SDS011;4156;50.908;6.974;2023-03-31T08:25:04;4.63;;;1.20;;
8230;SDS011;4156;50.908;6.974;2023-03-31T08:27:33;1.40;;;1.10;;
8230;SDS011;4156;50.908;6.974;2023-03-31T08:29:59;1.90;;;0.90;;
8230;SDS011;4156;50.908;6.974;2023-03-31T08:32:28;2.97;;;1.50;;
8230;SDS011;4156;50.908;6.974;2023-03-31T08:34:54;2.47;;;1.20;;
8230;SDS011;4156;50.908;6.974;2023-03-31T08:37:20;2.13;;;1.20;;
8230;SDS011;4156;50.908;6.974;2023-03-31T08:39:45;2.77;;;1.27;;
8230;SDS011;4156;50.908;6.974;2023-03-31T08:42:19;1.97;;;1.50;;
8230;SDS011;4156;50.908;6.974;2023-03-31T08:45:02;3.83;;;1.60;;
8230;SDS011;4156;50.908;6.974;2023-03-31T08:47:50;2.07;;;1.30;;
8230;SDS011;4156;50.908;6.974;2023-03-31T08:50:20;4.63;;;1.60;;
8230;SDS011;4156;50.908;6.974;2023-03-31T08:53:35;4.30;;;1.60;;
8230;SDS011;4156;50.908;6.974;2023-03-31T08:55:48;3.37;;;1.83;;
8230;SDS011;4156;50.908;6.974;2023-03-31T09:01:35;3.00;;;1.40;;
8230;SDS011;4156;50.908;6.974;2023-03-31T09:04:17;5.50;;;1.90;;
8230;SDS011;4156;50.908;6.974;2023-03-31T09:09:38;4.33;;;1.93;;
8230;SDS011;4156;50.908;6.974;2023-03-31T09:12:35;3.50;;;1.50;;
8230;SDS011;4156;50.908;6.974;2023-03-31T09:15:10;3.10;;;1.87;;
8230;SDS011;4156;50.908;6.974;2023-03-31T09:17:50;3.93;;;1.47;;
8230;SDS011;4156;50.908;6.974;2023-03-31T09:20:21;3.23;;;1.40;;
8230;SDS011;4156;50.908;6.974;2023-03-31T09:23:00;6.13;;;1.60;;
8230;SDS011;4156;50.908;6.974;2023-03-31T09:25:40;5.57;;;2.20;;
8230;SDS011;4156;50.908;6.974;2023-03-31T09:28:19;2.53;;;1.73;;
8230;SDS011;4156;50.908;6.974;2023-03-31T09:30:47;4.83;;;2.10;;
8230;SDS011;4156;50.908;6.974;2023-03-31T09:33:29;4.90;;;2.00;;
8230;SDS011;4156;50.908;6.974;2023-03-31T09:35:58;5.57;;;2.17;;
8230;SDS011;4156;50.908;6.974;2023-03-31T09:38:24;4.43;;;2.17;;
8230;SDS011;4156;50.908;6.974;2023-03-31T09:40:54;4.97;;;1.80;;
8230;SDS011;4156;50.908;6.974;2023-03-31T09:43:21;5.43;;;1.80;;
8230;SDS011;4156;50.908;6.974;2023-03-31T09:45:50;6.73;;;2.10;;
8230;SDS011;4156;50.908;6.974;2023-03-31T09:48:21;5.00;;;2.47;;
8230;SDS011;4156;50.908;6.974;2023-03-31T09:51:00;5.10;;;1.50;;
8230;SDS011;4156;50.908;6.974;2023-03-31T09:56:04;4.67;;;1.80;;
8230;SDS011;4156;50.908;6.974;2023-03-31T09:58:33;5.87;;;1.67;;
8230;SDS011;4156;50.908;6.974;2023-03-31T10:01:05;4.47;;;1.80;;
8230;SDS011;4156;50.908;6.974;2023-03-31T10:03:40;4.53;;;1.73;;
8230;SDS011;4156;50.908;6.974;2023-03-31T10:06:13;5.17;;;2.23;;
8230;SDS011;4156;50.908;6.974;2023-03-31T10:08:48;8.33;;;1.93;;
8230;SDS011;4156;50.908;6.974;2023-03-31T10:11:34;7.73;;;2.23;;
8230;SDS011;4156;50.908;6.974;2023-03-31T10:14:02;4.87;;;1.97;;
8230;SDS011;4156;50.908;6.974;2023-03-31T10:16:31;5.67;;;2.00;;
8230;SDS011;4156;50.908;6.974;2023-03-31T10:21:59;5.50;;;2.03;;
8230;SDS011;4156;50.908;6.974;2023-03-31T10:24:34;8.63;;;2.17;;
8230;SDS011;4156;50.908;6.974;2023-03-31T10:27:03;3.40;;;1.77;;
8230;SDS011;4156;50.908;6.974;2023-03-31T10:29:32;4.97;;;1.70;;
8230;SDS011;4156;50.908;6.974;2023-03-31T10:32:02;5.53;;;2.03;;
8230;SDS011;4156;50.908;6.974;2023-03-31T10:34:32;4.23;;;1.90;;
8230;SDS011;4156;50.908;6.974;2023-03-31T10:37:00;4.37;;;1.80;;
8230;SDS011;4156;50.908;6.974;2023-03-31T10:39:29;4.60;;;1.80;;
8230;SDS011;4156;50.908;6.974;2023-03-31T10:41:56;5.93;;;1.80;;
8230;SDS011;4156;50.908;6.974;2023-03-31T10:44:33;8.70;;;2.00;;
8230;SDS011;4156;50.908;6.974;2023-03-31T10:49:40;6.40;;;1.90;;
8230;SDS011;4156;50.908;6.974;2023-03-31T10:52:25;4.27;;;1.90;;
8230;SDS011;4156;50.908;6.974;2023-03-31T10:54:58;4.07;;;1.70;;
8230;SDS011;4156;50.908;6.974;2023-03-31T11:05:49;2.43;;;1.20;;
8230;SDS011;4156;50.908;6.974;2023-03-31T11:08:35;3.60;;;1.77;;
8230;SDS011;4156;50.908;6.974;2023-03-31T11:13:57;3.20;;;1.57;;
8230;SDS011;4156;50.908;6.974;2023-03-31T11:16:46;2.17;;;1.03;;
8230;SDS011;4156;50.908;6.974;2023-03-31T11:19:35;3.63;;;1.33;;
8230;SDS011;4156;50.908;6.974;2023-03-31T11:25:10;2.97;;;1.40;;
8230;SDS011;4156;50.908;6.974;2023-03-31T11:28:15;7.43;;;1.73;;
8230;SDS011;4156;50.908;6.974;2023-03-31T11:34:14;4.70;;;2.30;;
8230;SDS011;4156;50.908;6.974;2023-03-31T11:37:10;7.20;;;1.77;;
8230;SDS011;4156;50.908;6.974;2023-03-31T11:42:37;2.37;;;1.53;;
8230;SDS011;4156;50.908;6.974;2023-03-31T11:45:15;6.57;;;2.30;;
8230;SDS011;4156;50.908;6.974;2023-03-31T11:47:51;5.10;;;1.50;;
8230;SDS011;4156;50.908;6.974;2023-03-31T11:50:26;3.67;;;1.70;;
8230;SDS011;4156;50.908;6.974;2023-03-31T11:52:56;4.53;;;1.90;;
8230;SDS011;4156;50.908;6.974;2023-03-31T11:55:26;5.70;;;1.90;;
8230;SDS011;4156;50.908;6.974;2023-03-31T11:58:05;4.57;;;1.70;;
8230;SDS011;4156;50.908;6.974;2023-03-31T12:00:52;4.47;;;1.80;;
8230;SDS011;4156;50.908;6.974;2023-03-31T12:03:34;6.13;;;2.27;;
8230;SDS011;4156;50.908;6.974;2023-03-31T12:06:20;5.37;;;1.87;;
8230;SDS011;4156;50.908;6.974;2023-03-31T12:14:46;5.43;;;2.60;;
8230;SDS011;4156;50.908;6.974;2023-03-31T12:17:25;4.83;;;1.83;;
8230;SDS011;4156;50.908;6.974;2023-03-31T12:19:52;5.47;;;2.23;;
8230;SDS011;4156;50.908;6.974;2023-03-31T12:22:25;5.30;;;1.90;;
8230;SDS011;4156;50.908;6.974;2023-03-31T12:24:55;6.20;;;1.80;;
8230;SDS011;4156;50.908;6.974;2023-03-31T12:27:33;4.90;;;2.03;;
8230;SDS011;4156;50.908;6.974;2023-03-31T12:30:19;7.93;;;1.93;;
8230;SDS011;4156;50.908;6.974;2023-03-31T12:38:50;4.70;;;1.77;;
8230;SDS011;4156;50.908;6.974;2023-03-31T12:47:13;4.27;;;1.87;;
8230;SDS011;4156;50.908;6.974;2023-03-31T12:52:50;5.40;;;1.90;;
8230;SDS011;4156;50.908;6.974;2023-03-31T13:03:37;7.07;;;1.50;;
8230;SDS011;4156;50.908;6.974;2023-03-31T13:08:59;4.73;;;1.70;;
8230;SDS011;4156;50.908;6.974;2023-03-31T13:11:51;5.07;;;1.83;;
8230;SDS011;4156;50.908;6.974;2023-03-31T13:14:50;4.93;;;2.00;;
8230;SDS011;4156;50.908;6.974;2023-03-31T13:17:19;2.73;;;1.53;;
8230;SDS011;4156;50.908;6.974;2023-03-31T13:19:51;5.50;;;1.90;;
8230;SDS011;4156;50.908;6.974;2023-03-31T13:22:32;3.17;;;1.50;;
8230;SDS011;4156;50.908;6.974;2023-03-31T13:28:17;7.53;;;2.73;;
8230;SDS011;4156;50.908;6.974;2023-03-31T13:36:34;5.17;;;1.80;;
8230;SDS011;4156;50.908;6.974;2023-03-31T13:47:44;3.30;;;1.50;;
8230;SDS011;4156;50.908;6.974;2023-03-31T14:01:57;6.20;;;1.87;;
8230;SDS011;4156;50.908;6.974;2023-03-31T14:07:20;4.40;;;1.30;;
8230;SDS011;4156;50.908;6.974;2023-03-31T14:09:54;4.37;;;1.50;;
8230;SDS011;4156;50.908;6.974;2023-03-31T14:14:55;3.20;;;1.53;;
8230;SDS011;4156;50.908;6.974;2023-03-31T14:17:22;6.17;;;1.60;;
8230;SDS011;4156;50.908;6.974;2023-03-31T14:23:03;3.20;;;1.50;;
8230;SDS011;4156;50.908;6.974;2023-03-31T14:25:50;2.80;;;1.70;;
8230;SDS011;4156;50.908;6.974;2023-03-31T14:28:42;1.93;;;1.33;;
8230;SDS011;4156;50.908;6.974;2023-03-31T14:34:19;2.40;;;1.20;;
8230;SDS011;4156;50.908;6.974;2023-03-31T14:37:09;4.17;;;1.70;;
8230;SDS011;4156;50.908;6.974;2023-03-31T14:39:47;1.37;;;1.03;;
8230;SDS011;4156;50.908;6.974;2023-03-31T14:42:17;2.80;;;1.30;;
8230;SDS011;4156;50.908;6.974;2023-03-31T14:44:45;2.30;;;1.43;;
8230;SDS011;4156;50.908;6.974;2023-03-31T14:47:18;1.57;;;1.20;;
8230;SDS011;4156;50.908;6.974;2023-03-31T14:49:45;2.00;;;1.30;;
8230;SDS011;4156;50.908;6.974;2023-03-31T14:52:20;2.03;;;1.10;;
8230;SDS011;4156;50.908;6.974;2023-03-31T14:54:48;1.37;;;1.13;;
8230;SDS011;4156;50.908;6.974;2023-03-31T14:57:22;1.77;;;1.30;;
8230;SDS011;4156;50.908;6.974;2023-03-31T14:59:53;1.97;;;1.40;;
8230;SDS011;4156;50.908;6.974;2023-03-31T15:02:22;3.33;;;1.50;;
8230;SDS011;4156;50.908;6.974;2023-03-31T15:04:58;2.67;;;1.27;;
8230;SDS011;4156;50.908;6.974;2023-03-31T15:07:27;3.57;;;1.50;;
8230;SDS011;4156;50.908;6.974;2023-03-31T15:09:53;2.60;;;1.13;;
8230;SDS011;4156;50.908;6.974;2023-03-31T15:12:19;4.73;;;1.47;;
8230;SDS011;4156;50.908;6.974;2023-03-31T15:14:48;2.93;;;1.30;;
8230;SDS011;4156;50.908;6.974;2023-03-31T15:17:21;2.13;;;1.40;;
8230;SDS011;4156;50.908;6.974;2023-03-31T15:19:56;3.97;;;1.40;;
8230;SDS011;4156;50.908;6.974;2023-03-31T15:22:27;4.23;;;1.43;;
8230;SDS011;4156;50.908;6.974;2023-03-31T15:24:53;4.67;;;1.57;;
8230;SDS011;4156;50.908;6.974;2023-03-31T15:27:26;3.23;;;2.00;;
8230;SDS011;4156;50.908;6.974;2023-03-31T15:30:11;5.03;;;1.73;;
8230;SDS011;4156;50.908;6.974;2023-03-31T15:32:40;2.20;;;1.20;;
8230;SDS011;4156;50.908;6.974;2023-03-31T15:35:06;4.20;;;1.60;;
8230;SDS011;4156;50.908;6.974;2023-03-31T15:37:45;3.60;;;1.20;;
8230;SDS011;4156;50.908;6.974;2023-03-31T15:43:08;3.03;;;1.40;;
8230;SDS011;4156;50.908;6.974;2023-03-31T15:45:52;5.73;;;1.60;;
8230;SDS011;4156;50.908;6.974;2023-03-31T15:48:22;3.37;;;1.70;;
8230;SDS011;4156;50.908;6.974;2023-03-31T15:51:01;3.47;;;1.30;;
8230;SDS011;4156;50.908;6.974;2023-03-31T15:56:24;2.87;;;1.40;;
8230;SDS011;4156;50.908;6.974;2023-03-31T15:59:00;3.63;;;1.97;;
8230;SDS011;4156;50.908;6.974;2023-03-31T16:01:39;2.47;;;1.40;;
8230;SDS011;4156;50.908;6.974;2023-03-31T16:04:08;2.50;;;1.23;;
8230;SDS011;4156;50.908;6.974;2023-03-31T16:06:40;4.23;;;1.40;;
8230;SDS011;4156;50.908;6.974;2023-03-31T16:12:14;2.23;;;1.57;;
8230;SDS011;4156;50.908;6.974;2023-03-31T16:17:31;1.13;;;1.03;;
8230;SDS011;4156;50.908;6.974;2023-03-31T16:20:02;2.17;;;1.97;;
8230;SDS011;4156;50.908;6.974;2023-03-31T16:22:37;2.97;;;1.33;;
8230;SDS011;4156;50.908;6.974;2023-03-31T16:25:13;2.97;;;1.33;;
8230;SDS011;4156;50.908;6.974;2023-03-31T16:27:41;3.93;;;1.60;;
8230;SDS011;4156;50.908;6.974;2023-03-31T16:30:12;3.50;;;1.20;;
8230;SDS011;4156;50.908;6.974;2023-03-31T16:32:57;2.77;;;1.20;;
8230;SDS011;4156;50.908;6.974;2023-03-31T16:35:41;5.30;;;1.60;;
8230;SDS011;4156;50.908;6.974;2023-03-31T16:38:15;3.57;;;1.10;;
8230;SDS011;4156;50.908;6.974;2023-03-31T16:40:42;1.40;;;1.20;;
8230;SDS011;4156;50.908;6.974;2023-03-31T16:43:10;5.03;;;1.63;;
8230;SDS011;4156;50.908;6.974;2023-03-31T16:45:59;2.67;;;1.70;;
8230;SDS011;4156;50.908;6.974;2023-03-31T16:48:28;2.57;;;1.40;;
8230;SDS011;4156;50.908;6.974;2023-03-31T16:50:57;3.67;;;1.30;;
8230;SDS011;4156;50.908;6.974;2023-03-31T16:53:25;3.03;;;1.73;;
8230;SDS011;4156;50.908;6.974;2023-03-31T16:55:53;3.27;;;1.40;;
8230;SDS011;4156;50.908;6.974;2023-03-31T16:58:18;1.43;;;1.23;;
8230;SDS011;4156;50.908;6.974;2023-03-31T17:00:45;2.93;;;1.30;;
8230;SDS011;4156;50.908;6.974;2023-03-31T17:03:11;1.90;;;1.10;;
8230;SDS011;4156;50.908;6.974;2023-03-31T17:05:39;1.60;;;1.10;;
8230;SDS011;4156;50.908;6.974;2023-03-31T17:08:06;4.10;;;1.50;;
8230;SDS011;4156;50.908;6.974;2023-03-31T17:10:34;2.13;;;1.20;;
8230;SDS011;4156;50.908;6.974;2023-03-31T17:13:00;3.07;;;1.40;;
8230;SDS011;4156;50.908;6.974;2023-03-31T17:15:25;2.80;;;1.40;;
8230;SDS011;4156;50.908;6.974;2023-03-31T17:17:53;2.40;;;1.27;;
8230;SDS011;4156;50.908;6.974;2023-03-31T17:20:20;2.53;;;1.40;;
8230;SDS011;4156;50.908;6.974;2023-03-31T17:22:46;2.40;;;1.30;;
8230;SDS011;4156;50.908;6.974;2023-03-31T17:25:12;1.43;;;1.10;;
8230;SDS011;4156;50.908;6.974;2023-03-31T17:27:38;1.83;;;1.10;;
8230;SDS011;4156;50.908;6.974;2023-03-31T17:30:04;1.47;;;1.30;;
8230;SDS011;4156;50.908;6.974;2023-03-31T17:32:30;2.17;;;1.23;;
8230;SDS011;4156;50.908;6.974;2023-03-31T17:34:56;2.03;;;1.27;;
8230;SDS011;4156;50.908;6.974;2023-03-31T17:37:22;1.67;;;1.17;;
8230;SDS011;4156;50.908;6.974;2023-03-31T17:39:47;2.20;;;1.20;;
8230;SDS011;4156;50.908;6.974;2023-03-31T17:42:13;3.43;;;1.57;;
8230;SDS011;4156;50.908;6.974;2023-03-31T17:44:39;2.17;;;1.40;;
8230;SDS011;4156;50.908;6.974;2023-03-31T17:47:05;2.53;;;1.43;;
8230;SDS011;4156;50.908;6.974;2023-03-31T17:49:31;3.67;;;1.20;;
8230;SDS011;4156;50.908;6.974;2023-03-31T17:51:57;2.83;;;1.30;;
8230;SDS011;4156;50.908;6.974;2023-03-31T17:54:23;3.10;;;1.40;;
8230;SDS011;4156;50.908;6.974;2023-03-31T17:56:48;3.13;;;1.20;;
8230;SDS011;4156;50.908;6.974;2023-03-31T17:59:15;1.77;;;1.07;;
8230;SDS011;4156;50.908;6.974;2023-03-31T18:01:44;2.20;;;1.23;;
8230;SDS011;4156;50.908;6.974;2023-03-31T18:04:10;1.30;;;1.17;;
8230;SDS011;4156;50.908;6.974;2023-03-31T18:06:37;1.33;;;1.00;;
8230;SDS011;4156;50.908;6.974;2023-03-31T18:09:03;3.53;;;1.47;;
8230;SDS011;4156;50.908;6.974;2023-03-31T18:11:29;2.10;;;1.23;;
8230;SDS011;4156;50.908;6.974;2023-03-31T18:13:55;2.63;;;1.30;;
8230;SDS011;4156;50.908;6.974;2023-03-31T18:16:24;5.87;;;2.47;;
8230;SDS011;4156;50.908;6.974;2023-03-31T18:18:50;3.57;;;1.33;;